sensor_id;sensor_type;location;lat;lon;timestamp;pressure;altitude;pressure_sealevel;temperature;humidity
15382;BME280;7789;51.364;12.358;2022-11-02T00:01:45;100738.00;;;11.94;98.74
15382;BME280;7789;51.364;12.358;2022-11-02T00:06:48;100740.84;;;11.91;99.85
15382;BME280;7789;51.364;12.358;2022-11-02T00:11:53;100728.16;;;11.86;99.53
15382;BME280;7789;51.364;12.358;2022-11-02T00:16:56;100739.81;;;11.82;100.00
15382;BME280;7789;51.364;12.358;2022-11-02T00:21:59;100740.06;;;11.79;100.00
15382;BME280;7789;51.364;12.358;2022-11-02T00:27:05;100741.16;;;11.77;100.00
15382;BME280;7789;51.364;12.358;2022-11-02T00:32:08;100747.34;;;11.76;100.00
15382;BME280;7789;51.364;12.358;2022-11-02T00:37:11;100748.41;;;11.73;100.00
15382;BME280;7789;51.364;12.358;2022-11-02T00:42:16;100752.09;;;11.71;100.00
15382;BME280;7789;51.364;12.358;2022-11-02T00:47:19;100757.72;;;11.66;100.00
15382;BME280;7789;51.364;12.358;2022-11-02T00:52:22;100743.19;;;11.62;100.00
15382;BME280;7789;51.364;12.358;2022-11-02T00:57:27;100742.75;;;11.57;100.00
15382;BME280;7789;51.364;12.358;2022-11-02T01:02:31;100736.78;;;11.55;100.00
15382;BME280;7789;51.364;12.358;2022-11-02T01:07:34;100738.09;;;11.50;100.00
15382;BME280;7789;51.364;12.358;2022-11-02T01:12:39;100736.06;;;11.42;100.00
15382;BME280;7789;51.364;12.358;2022-11-02T01:17:42;100733.94;;;11.36;100.00
15382;BME280;7789;51.364;12.358;2022-11-02T01:22:46;100727.41;;;11.31;100.00
15382;BME280;7789;51.364;12.358;2022-11-02T01:27:50;100723.25;;;11.28;100.00
15382;BME280;7789;51.364;12.358;2022-11-02T01:32:54;100718.41;;;11.24;100.00
15382;BME280;7789;51.364;12.358;2022-11-02T01:37:58;100720.16;;;11.23;100.00
15382;BME280;7789;51.364;12.358;2022-11-02T01:43:22;100731.59;;;11.22;100.00
15382;BME280;7789;51.364;12.358;2022-11-02T01:48:31;100726.72;;;11.18;100.00
15382;BME280;7789;51.364;12.358;2022-11-02T01:53:37;100719.09;;;11.15;100.00
15382;BME280;7789;51.364;12.358;2022-11-02T01:58:46;100714.22;;;11.10;100.00
15382;BME280;7789;51.364;12.358;2022-11-02T02:03:51;100706.63;;;11.07;100.00
15382;BME280;7789;51.364;12.358;2022-11-02T02:08:57;100711.75;;;11.09;100.00
15382;BME280;7789;51.364;12.358;2022-11-02T02:14:05;100708.28;;;11.08;100.00
15382;BME280;7789;51.364;12.358;2022-11-02T02:19:21;100709.13;;;11.09;100.00
15382;BME280;7789;51.364;12.358;2022-11-02T02:24:42;100705.56;;;11.10;100.00
15382;BME280;7789;51.364;12.358;2022-11-02T02:30:02;100703.75;;;11.10;100.00
15382;BME280;7789;51.364;12.358;2022-11-02T02:35:14;100705.41;;;11.11;100.00
15382;BME280;7789;51.364;12.358;2022-11-02T02:40:22;100704.47;;;11.12;100.00
15382;BME280;7789;51.364;12.358;2022-11-02T02:45:32;100705.16;;;11.14;100.00
15382;BME280;7789;51.364;12.358;2022-11-02T02:50:39;100703.50;;;11.13;100.00
15382;BME280;7789;51.364;12.358;2022-11-02T02:55:47;100701.03;;;11.12;100.00
15382;BME280;7789;51.364;12.358;2022-11-02T03:00:53;100691.38;;;11.12;100.00
15382;BME280;7789;51.364;12.358;2022-11-02T03:06:03;100688.66;;;11.14;100.00
15382;BME280;7789;51.364;12.358;2022-11-02T03:11:11;100685.09;;;11.15;100.00
15382;BME280;7789;51.364;12.358;2022-11-02T03:16:26;100690.06;;;11.18;100.00
15382;BME280;7789;51.364;12.358;2022-11-02T03:21:36;100683.31;;;11.15;100.00
15382;BME280;7789;51.364;12.358;2022-11-02T03:26:46;100682.56;;;11.13;100.00
15382;BME280;7789;51.364;12.358;2022-11-02T03:31:56;100679.84;;;11.15;100.00
15382;BME280;7789;51.364;12.358;2022-11-02T03:37:05;100670.94;;;11.17;100.00
15382;BME280;7789;51.364;12.358;2022-11-02T03:42:14;100674.97;;;11.21;100.00
15382;BME280;7789;51.364;12.358;2022-11-02T03:47:21;100664.38;;;11.23;100.00
15382;BME280;7789;51.364;12.358;2022-11-02T03:52:28;100679.25;;;11.22;100.00
15382;BME280;7789;51.364;12.358;2022-11-02T03:57:35;100677.34;;;11.24;100.00
15382;BME280;7789;51.364;12.358;2022-11-02T04:02:46;100670.34;;;11.25;100.00
15382;BME280;7789;51.364;12.358;2022-11-02T04:07:51;100679.97;;;11.24;100.00
15382;BME280;7789;51.364;12.358;2022-11-02T04:13:13;100680.06;;;11.23;100.00
15382;BME280;7789;51.364;12.358;2022-11-02T04:18:35;100673.16;;;11.22;100.00
15382;BME280;7789;51.364;12.358;2022-11-02T04:23:55;100673.31;;;11.20;100.00
15382;BME280;7789;51.364;12.358;2022-11-02T04:29:16;100678.66;;;11.19;100.00
15382;BME280;7789;51.364;12.358;2022-11-02T04:34:20;100670.22;;;11.15;100.00
15382;BME280;7789;51.364;12.358;2022-11-02T04:39:23;100672.13;;;11.13;100.00
15382;BME280;7789;51.364;12.358;2022-11-02T04:44:26;100673.78;;;11.14;100.00
15382;BME280;7789;51.364;12.358;2022-11-02T04:49:31;100664.25;;;11.13;100.00
15382;BME280;7789;51.364;12.358;2022-11-02T04:54:34;100681.06;;;11.11;100.00
15382;BME280;7789;51.364;12.358;2022-11-02T04:59:37;100674.28;;;11.08;100.00
15382;BME280;7789;51.364;12.358;2022-11-02T05:04:42;100659.63;;;11.06;100.00
15382;BME280;7789;51.364;12.358;2022-11-02T05:09:45;100663.22;;;11.05;100.00
15382;BME280;7789;51.364;12.358;2022-11-02T05:14:48;100657.88;;;11.06;100.00
15382;BME280;7789;51.364;12.358;2022-11-02T05:19:52;100661.44;;;11.05;100.00
15382;BME280;7789;51.364;12.358;2022-11-02T05:24:56;100656.81;;;11.09;100.00
15382;BME280;7789;51.364;12.358;2022-11-02T05:30:00;100663.56;;;11.11;100.00
15382;BME280;7789;51.364;12.358;2022-11-02T05:35:06;100655.47;;;11.14;100.00
15382;BME280;7789;51.364;12.358;2022-11-02T05:40:11;100669.03;;;11.19;100.00
15382;BME280;7789;51.364;12.358;2022-11-02T05:45:14;100652.13;;;11.23;100.00
15382;BME280;7789;51.364;12.358;2022-11-02T05:50:27;100659.72;;;11.26;100.00
15382;BME280;7789;51.364;12.358;2022-11-02T05:55:30;100674.13;;;11.32;100.00
15382;BME280;7789;51.364;12.358;2022-11-02T06:00:33;100677.97;;;11.48;100.00
15382;BME280;7789;51.364;12.358;2022-11-02T06:05:38;100671.78;;;11.60;100.00
15382;BME280;7789;51.364;12.358;2022-11-02T06:10:41;100681.53;;;11.69;100.00
15382;BME280;7789;51.364;12.358;2022-11-02T06:15:44;100686.16;;;11.77;100.00
15382;BME280;7789;51.364;12.358;2022-11-02T06:20:48;100698.38;;;11.87;100.00
15382;BME280;7789;51.364;12.358;2022-11-02T06:25:52;100709.19;;;11.94;100.00
15382;BME280;7789;51.364;12.358;2022-11-02T06:30:55;100719.25;;;11.98;100.00
15382;BME280;7789;51.364;12.358;2022-11-02T06:36:00;100729.19;;;11.95;100.00
15382;BME280;7789;51.364;12.358;2022-11-02T06:41:03;100733.72;;;11.93;100.00
15382;BME280;7789;51.364;12.358;2022-11-02T06:46:07;100731.22;;;11.91;99.72
15382;BME280;7789;51.364;12.358;2022-11-02T06:51:12;100739.41;;;11.98;99.57
15382;BME280;7789;51.364;12.358;2022-11-02T06:56:15;100742.72;;;12.00;99.13
15382;BME280;7789;51.364;12.358;2022-11-02T07:01:18;100747.72;;;12.03;99.54
15382;BME280;7789;51.364;12.358;2022-11-02T07:06:23;100751.75;;;12.07;98.59
15382;BME280;7789;51.364;12.358;2022-11-02T07:11:26;100764.22;;;12.14;97.78
15382;BME280;7789;51.364;12.358;2022-11-02T07:16:29;100767.88;;;12.23;97.41
15382;BME280;7789;51.364;12.358;2022-11-02T07:21:34;100762.72;;;12.32;96.65
15382;BME280;7789;51.364;12.358;2022-11-02T07:26:37;100775.41;;;12.48;96.35
15382;BME280;7789;51.364;12.358;2022-11-02T07:31:40;100767.66;;;12.67;95.83
15382;BME280;7789;51.364;12.358;2022-11-02T07:36:45;100766.41;;;12.91;95.59
15382;BME280;7789;51.364;12.358;2022-11-02T07:41:48;100770.25;;;13.07;94.60
15382;BME280;7789;51.364;12.358;2022-11-02T07:46:52;100779.47;;;13.32;93.47
15382;BME280;7789;51.364;12.358;2022-11-02T07:51:57;100770.56;;;13.53;92.47
15382;BME280;7789;51.364;12.358;2022-11-02T07:57:00;100783.59;;;13.64;91.87
15382;BME280;7789;51.364;12.358;2022-11-02T08:02:02;100786.28;;;14.02;91.09
15382;BME280;7789;51.364;12.358;2022-11-02T08:07:07;100791.31;;;14.24;90.30
15382;BME280;7789;51.364;12.358;2022-11-02T08:12:10;100781.06;;;14.21;89.33
15382;BME280;7789;51.364;12.358;2022-11-02T08:17:13;100777.06;;;14.36;90.01
15382;BME280;7789;51.364;12.358;2022-11-02T08:22:17;100780.50;;;14.65;88.59
15382;BME280;7789;51.364;12.358;2022-11-02T08:27:20;100786.22;;;15.43;85.14
15382;BME280;7789;51.364;12.358;2022-11-02T08:32:23;100774.91;;;15.23;85.76
15382;BME280;7789;51.364;12.358;2022-11-02T08:37:27;100772.09;;;15.34;85.05
15382;BME280;7789;51.364;12.358;2022-11-02T08:42:31;100775.25;;;15.47;83.61
15382;BME280;7789;51.364;12.358;2022-11-02T08:47:39;100765.19;;;15.60;83.00
15382;BME280;7789;51.364;12.358;2022-11-02T08:52:44;100770.34;;;15.79;82.71
15382;BME280;7789;51.364;12.358;2022-11-02T08:57:47;100764.69;;;15.92;82.47
15382;BME280;7789;51.364;12.358;2022-11-02T09:02:59;100764.75;;;16.00;79.42
15382;BME280;7789;51.364;12.358;2022-11-02T09:08:06;100762.09;;;16.09;79.39
15382;BME280;7789;51.364;12.358;2022-11-02T09:13:11;100769.00;;;16.28;79.54
15382;BME280;7789;51.364;12.358;2022-11-02T09:18:14;100771.13;;;16.42;78.26
15382;BME280;7789;51.364;12.358;2022-11-02T09:23:19;100772.78;;;16.60;76.26
15382;BME280;7789;51.364;12.358;2022-11-02T09:28:23;100772.88;;;16.76;75.89
15382;BME280;7789;51.364;12.358;2022-11-02T09:33:26;100776.88;;;16.80;75.23
15382;BME280;7789;51.364;12.358;2022-11-02T09:38:32;100785.56;;;16.98;75.09
15382;BME280;7789;51.364;12.358;2022-11-02T09:43:42;100784.47;;;17.08;73.55
15382;BME280;7789;51.364;12.358;2022-11-02T09:48:51;100796.72;;;17.17;72.27
15382;BME280;7789;51.364;12.358;2022-11-02T09:54:02;100804.53;;;17.27;71.62
15382;BME280;7789;51.364;12.358;2022-11-02T09:59:12;100813.16;;;17.29;70.56
15382;BME280;7789;51.364;12.358;2022-11-02T10:09:52;100805.63;;;17.34;68.73
15382;BME280;7789;51.364;12.358;2022-11-02T10:15:02;100810.44;;;17.38;68.87
15382;BME280;7789;51.364;12.358;2022-11-02T10:20:24;100808.38;;;17.32;68.15
15382;BME280;7789;51.364;12.358;2022-11-02T10:25:29;100816.22;;;17.42;66.10
15382;BME280;7789;51.364;12.358;2022-11-02T10:30:32;100811.13;;;17.40;65.43
15382;BME280;7789;51.364;12.358;2022-11-02T10:35:44;100811.31;;;17.47;64.54
15382;BME280;7789;51.364;12.358;2022-11-02T10:41:17;100814.25;;;17.44;63.48
15382;BME280;7789;51.364;12.358;2022-11-02T10:46:38;100815.75;;;17.46;63.38
15382;BME280;7789;51.364;12.358;2022-11-02T10:51:43;100813.59;;;17.42;62.57
15382;BME280;7789;51.364;12.358;2022-11-02T10:56:48;100826.06;;;17.57;62.43
15382;BME280;7789;51.364;12.358;2022-11-02T11:02:07;100818.16;;;17.65;61.81
15382;BME280;7789;51.364;12.358;2022-11-02T11:07:15;100821.97;;;17.71;60.88
15382;BME280;7789;51.364;12.358;2022-11-02T11:12:22;100815.69;;;17.64;60.53
15382;BME280;7789;51.364;12.358;2022-11-02T11:17:28;100820.31;;;17.62;60.26
15382;BME280;7789;51.364;12.358;2022-11-02T11:23:15;100828.59;;;17.67;60.27
15382;BME280;7789;51.364;12.358;2022-11-02T11:28:25;100819.81;;;17.66;59.01
15382;BME280;7789;51.364;12.358;2022-11-02T11:33:29;100812.53;;;17.68;59.27
15382;BME280;7789;51.364;12.358;2022-11-02T11:38:34;100827.00;;;17.82;58.34
15382;BME280;7789;51.364;12.358;2022-11-02T11:43:39;100834.13;;;17.97;57.79
15382;BME280;7789;51.364;12.358;2022-11-02T11:48:45;100832.03;;;18.17;56.77
15382;BME280;7789;51.364;12.358;2022-11-02T11:54:12;100835.84;;;18.14;56.00
15382;BME280;7789;51.364;12.358;2022-11-02T11:59:29;100843.66;;;17.82;56.79
15382;BME280;7789;51.364;12.358;2022-11-02T12:04:34;100842.63;;;17.67;56.79
15382;BME280;7789;51.364;12.358;2022-11-02T12:09:42;100842.16;;;17.72;57.09
15382;BME280;7789;51.364;12.358;2022-11-02T12:14:58;100839.81;;;17.69;56.65
15382;BME280;7789;51.364;12.358;2022-11-02T12:20:18;100841.69;;;17.76;56.14
15382;BME280;7789;51.364;12.358;2022-11-02T12:25:37;100837.91;;;17.79;56.61
15382;BME280;7789;51.364;12.358;2022-11-02T12:30:50;100839.88;;;17.85;56.74
15382;BME280;7789;51.364;12.358;2022-11-02T12:36:06;100836.59;;;17.91;55.80
15382;BME280;7789;51.364;12.358;2022-11-02T12:41:16;100843.34;;;17.85;55.27
15382;BME280;7789;51.364;12.358;2022-11-02T12:46:30;100845.84;;;17.87;55.26
15382;BME280;7789;51.364;12.358;2022-11-02T12:51:47;100853.72;;;17.71;55.07
15382;BME280;7789;51.364;12.358;2022-11-02T12:56:53;100841.53;;;17.44;55.83
15382;BME280;7789;51.364;12.358;2022-11-02T13:02:04;100844.91;;;17.29;56.06
15382;BME280;7789;51.364;12.358;2022-11-02T13:07:12;100832.59;;;17.20;55.53
15382;BME280;7789;51.364;12.358;2022-11-02T13:12:19;100840.00;;;17.16;55.51
15382;BME280;7789;51.364;12.358;2022-11-02T13:17:32;100834.22;;;17.13;55.49
15382;BME280;7789;51.364;12.358;2022-11-02T13:22:39;100844.13;;;17.11;55.76
15382;BME280;7789;51.364;12.358;2022-11-02T13:27:47;100839.28;;;17.06;55.46
15382;BME280;7789;51.364;12.358;2022-11-02T13:32:57;100862.75;;;17.09;55.81
15382;BME280;7789;51.364;12.358;2022-11-02T13:38:10;100858.91;;;17.04;55.29
15382;BME280;7789;51.364;12.358;2022-11-02T13:49:00;100843.56;;;16.82;56.09
15382;BME280;7789;51.364;12.358;2022-11-02T13:54:10;100832.66;;;16.77;55.80
15382;BME280;7789;51.364;12.358;2022-11-02T13:59:19;100826.16;;;16.72;55.90
15382;BME280;7789;51.364;12.358;2022-11-02T14:04:25;100851.66;;;16.63;56.32
15382;BME280;7789;51.364;12.358;2022-11-02T14:09:32;100848.13;;;16.55;55.97
15382;BME280;7789;51.364;12.358;2022-11-02T14:14:36;100865.03;;;16.44;56.20
15382;BME280;7789;51.364;12.358;2022-11-02T14:19:54;100870.56;;;16.41;56.50
15382;BME280;7789;51.364;12.358;2022-11-02T14:25:15;100876.47;;;16.35;56.84
15382;BME280;7789;51.364;12.358;2022-11-02T14:30:43;100875.38;;;16.28;57.29
15382;BME280;7789;51.364;12.358;2022-11-02T14:35:56;100858.78;;;16.18;57.74
15382;BME280;7789;51.364;12.358;2022-11-02T14:41:12;100861.19;;;16.12;57.65
15382;BME280;7789;51.364;12.358;2022-11-02T14:46:34;100880.06;;;16.07;57.36
15382;BME280;7789;51.364;12.358;2022-11-02T14:51:41;100877.22;;;16.01;57.68
15382;BME280;7789;51.364;12.358;2022-11-02T14:56:48;100885.03;;;15.93;57.81
15382;BME280;7789;51.364;12.358;2022-11-02T15:01:55;100872.56;;;15.85;58.38
15382;BME280;7789;51.364;12.358;2022-11-02T15:07:02;100885.66;;;15.77;59.11
15382;BME280;7789;51.364;12.358;2022-11-02T15:12:27;100902.06;;;15.71;59.84
15382;BME280;7789;51.364;12.358;2022-11-02T15:17:52;100901.41;;;15.60;60.00
15382;BME280;7789;51.364;12.358;2022-11-02T15:23:00;100902.28;;;15.51;59.96
15382;BME280;7789;51.364;12.358;2022-11-02T15:28:13;100905.75;;;15.42;60.91
15382;BME280;7789;51.364;12.358;2022-11-02T15:33:22;100920.78;;;15.32;61.23
15382;BME280;7789;51.364;12.358;2022-11-02T15:38:29;100925.19;;;15.22;61.45
15382;BME280;7789;51.364;12.358;2022-11-02T15:44:14;100920.91;;;15.11;62.00
15382;BME280;7789;51.364;12.358;2022-11-02T15:49:34;100913.16;;;15.00;62.06
15382;BME280;7789;51.364;12.358;2022-11-02T15:54:52;100907.09;;;14.90;62.96
15382;BME280;7789;51.364;12.358;2022-11-02T16:00:16;100909.00;;;14.79;62.71
15382;BME280;7789;51.364;12.358;2022-11-02T16:05:21;100913.56;;;14.68;63.33
15382;BME280;7789;51.364;12.358;2022-11-02T16:10:28;100928.66;;;14.56;64.30
15382;BME280;7789;51.364;12.358;2022-11-02T16:15:31;100929.50;;;14.47;65.01
15382;BME280;7789;51.364;12.358;2022-11-02T16:20:36;100926.00;;;14.37;65.03
15382;BME280;7789;51.364;12.358;2022-11-02T16:25:44;100932.91;;;14.29;65.80
15382;BME280;7789;51.364;12.358;2022-11-02T16:30:58;100942.56;;;14.19;67.00
15382;BME280;7789;51.364;12.358;2022-11-02T16:36:02;100950.09;;;14.03;66.75
15382;BME280;7789;51.364;12.358;2022-11-02T16:41:07;100950.22;;;13.92;67.59
15382;BME280;7789;51.364;12.358;2022-11-02T16:46:13;100940.47;;;13.83;67.45
15382;BME280;7789;51.364;12.358;2022-11-02T16:51:17;100952.34;;;13.77;67.48
15382;BME280;7789;51.364;12.358;2022-11-02T16:56:25;100961.72;;;13.70;68.40
15382;BME280;7789;51.364;12.358;2022-11-02T17:01:34;100964.19;;;13.62;68.33
15382;BME280;7789;51.364;12.358;2022-11-02T17:06:40;100962.22;;;13.55;68.60
15382;BME280;7789;51.364;12.358;2022-11-02T17:11:45;100967.13;;;13.48;68.91
15382;BME280;7789;51.364;12.358;2022-11-02T17:17:03;100968.47;;;13.43;69.80
15382;BME280;7789;51.364;12.358;2022-11-02T17:22:10;100970.19;;;13.33;70.23
15382;BME280;7789;51.364;12.358;2022-11-02T17:27:22;100970.72;;;13.27;70.22
15382;BME280;7789;51.364;12.358;2022-11-02T17:32:26;100971.34;;;13.19;70.35
15382;BME280;7789;51.364;12.358;2022-11-02T17:37:31;100977.13;;;13.13;70.59
15382;BME280;7789;51.364;12.358;2022-11-02T17:42:35;100974.88;;;13.09;70.52
15382;BME280;7789;51.364;12.358;2022-11-02T17:47:57;100977.16;;;13.02;71.08
15382;BME280;7789;51.364;12.358;2022-11-02T17:53:01;100971.84;;;12.93;71.74
15382;BME280;7789;51.364;12.358;2022-11-02T17:58:08;100980.03;;;12.88;71.89
15382;BME280;7789;51.364;12.358;2022-11-02T18:03:14;100974.47;;;12.82;71.95
15382;BME280;7789;51.364;12.358;2022-11-02T18:08:18;100972.34;;;12.76;72.41
15382;BME280;7789;51.364;12.358;2022-11-02T18:13:23;100972.00;;;12.70;72.37
15382;BME280;7789;51.364;12.358;2022-11-02T18:18:26;100979.41;;;12.65;72.93
15382;BME280;7789;51.364;12.358;2022-11-02T18:23:29;100975.59;;;12.58;73.13
15382;BME280;7789;51.364;12.358;2022-11-02T18:28:35;100964.56;;;12.54;73.98
15382;BME280;7789;51.364;12.358;2022-11-02T18:33:38;100965.16;;;12.47;73.94
15382;BME280;7789;51.364;12.358;2022-11-02T18:38:41;100963.84;;;12.41;73.73
15382;BME280;7789;51.364;12.358;2022-11-02T18:43:45;100968.66;;;12.36;74.06
15382;BME280;7789;51.364;12.358;2022-11-02T18:48:48;100964.81;;;12.29;74.47
15382;BME280;7789;51.364;12.358;2022-11-02T18:53:52;100955.66;;;12.24;75.30
15382;BME280;7789;51.364;12.358;2022-11-02T18:58:57;100955.91;;;12.21;75.42
15382;BME280;7789;51.364;12.358;2022-11-02T19:04:00;100962.44;;;12.15;75.53
15382;BME280;7789;51.364;12.358;2022-11-02T19:09:05;100962.13;;;12.09;75.45
15382;BME280;7789;51.364;12.358;2022-11-02T19:14:23;100958.19;;;12.03;75.64
15382;BME280;7789;51.364;12.358;2022-11-02T19:19:26;100966.41;;;11.99;76.38
15382;BME280;7789;51.364;12.358;2022-11-02T19:24:29;100970.34;;;11.93;76.71
15382;BME280;7789;51.364;12.358;2022-11-02T19:29:33;100961.75;;;11.91;76.91
15382;BME280;7789;51.364;12.358;2022-11-02T19:34:37;100953.53;;;11.85;77.53
15382;BME280;7789;51.364;12.358;2022-11-02T19:39:40;100963.81;;;11.77;77.82
15382;BME280;7789;51.364;12.358;2022-11-02T19:44:44;100965.19;;;11.70;77.63
15382;BME280;7789;51.364;12.358;2022-11-02T19:49:47;100967.34;;;11.65;77.80
15382;BME280;7789;51.364;12.358;2022-11-02T19:54:51;100974.72;;;11.60;77.88
15382;BME280;7789;51.364;12.358;2022-11-02T19:59:55;100976.00;;;11.54;77.94
15382;BME280;7789;51.364;12.358;2022-11-02T20:04:59;100970.28;;;11.49;79.29
15382;BME280;7789;51.364;12.358;2022-11-02T20:10:02;100983.81;;;11.43;80.03
15382;BME280;7789;51.364;12.358;2022-11-02T20:15:07;100987.63;;;11.39;79.70
15382;BME280;7789;51.364;12.358;2022-11-02T20:20:12;100981.78;;;11.36;80.83
15382;BME280;7789;51.364;12.358;2022-11-02T20:25:15;100979.88;;;11.27;81.38
15382;BME280;7789;51.364;12.358;2022-11-02T20:30:20;100978.28;;;11.24;81.25
15382;BME280;7789;51.364;12.358;2022-11-02T20:35:23;100988.28;;;11.19;81.74
15382;BME280;7789;51.364;12.358;2022-11-02T20:40:27;100999.41;;;11.10;82.54
15382;BME280;7789;51.364;12.358;2022-11-02T20:45:39;101000.50;;;11.08;81.65
15382;BME280;7789;51.364;12.358;2022-11-02T20:50:43;101005.56;;;10.99;83.32
15382;BME280;7789;51.364;12.358;2022-11-02T20:55:46;101001.63;;;10.93;83.16
15382;BME280;7789;51.364;12.358;2022-11-02T21:00:51;101006.13;;;10.91;82.95
15382;BME280;7789;51.364;12.358;2022-11-02T21:05:54;101017.03;;;10.85;82.41
15382;BME280;7789;51.364;12.358;2022-11-02T21:11:00;101012.34;;;10.78;82.54
15382;BME280;7789;51.364;12.358;2022-11-02T21:16:05;101017.94;;;10.73;83.26
15382;BME280;7789;51.364;12.358;2022-11-02T21:21:11;100997.44;;;10.67;83.10
15382;BME280;7789;51.364;12.358;2022-11-02T21:26:16;100998.59;;;10.63;82.50
15382;BME280;7789;51.364;12.358;2022-11-02T21:31:21;100995.50;;;10.58;82.98
15382;BME280;7789;51.364;12.358;2022-11-02T21:36:24;100998.19;;;10.57;83.14
15382;BME280;7789;51.364;12.358;2022-11-02T21:41:27;100995.59;;;10.57;82.88
15382;BME280;7789;51.364;12.358;2022-11-02T21:46:34;100985.59;;;10.51;83.12
15382;BME280;7789;51.364;12.358;2022-11-02T21:51:37;100988.53;;;10.46;83.43
15382;BME280;7789;51.364;12.358;2022-11-02T21:56:40;100987.16;;;10.41;83.48
15382;BME280;7789;51.364;12.358;2022-11-02T22:01:45;100984.78;;;10.38;83.56
15382;BME280;7789;51.364;12.358;2022-11-02T22:06:50;100975.50;;;10.34;83.53
15382;BME280;7789;51.364;12.358;2022-11-02T22:11:54;100980.19;;;10.29;83.97
15382;BME280;7789;51.364;12.358;2022-11-02T22:17:12;100965.47;;;10.28;84.26
15382;BME280;7789;51.364;12.358;2022-11-02T22:22:35;100967.34;;;10.26;84.19
15382;BME280;7789;51.364;12.358;2022-11-02T22:27:38;100962.25;;;10.24;84.94
15382;BME280;7789;51.364;12.358;2022-11-02T22:32:43;100959.97;;;10.20;84.99
15382;BME280;7789;51.364;12.358;2022-11-02T22:37:46;100952.34;;;10.17;84.97
15382;BME280;7789;51.364;12.358;2022-11-02T22:43:06;100938.03;;;10.10;85.10
15382;BME280;7789;51.364;12.358;2022-11-02T22:48:11;100936.72;;;10.04;85.16
15382;BME280;7789;51.364;12.358;2022-11-02T22:53:14;100944.72;;;10.01;86.20
15382;BME280;7789;51.364;12.358;2022-11-02T22:58:17;100935.19;;;10.00;85.91
15382;BME280;7789;51.364;12.358;2022-11-02T23:03:22;100937.09;;;9.98;86.13
15382;BME280;7789;51.364;12.358;2022-11-02T23:08:25;100934.59;;;9.97;86.50
15382;BME280;7789;51.364;12.358;2022-11-02T23:13:29;100926.56;;;9.87;86.12
15382;BME280;7789;51.364;12.358;2022-11-02T23:18:33;100935.44;;;9.85;86.54
15382;BME280;7789;51.364;12.358;2022-11-02T23:23:50;100934.81;;;9.81;86.79
15382;BME280;7789;51.364;12.358;2022-11-02T23:29:11;100934.94;;;9.80;87.39
15382;BME280;7789;51.364;12.358;2022-11-02T23:34:49;100927.41;;;9.75;87.52
15382;BME280;7789;51.364;12.358;2022-11-02T23:40:10;100915.53;;;9.71;87.58
15382;BME280;7789;51.364;12.358;2022-11-02T23:45:14;100912.28;;;9.68;87.89
15382;BME280;7789;51.364;12.358;2022-11-02T23:50:20;100918.53;;;9.65;88.07
15382;BME280;7789;51.364;12.358;2022-11-02T23:55:37;100910.13;;;9.62;88.09
